createdAt,value
2022-11-08T00:00:50.603Z,99478.00
2022-11-08T00:03:18.678Z,99490.00
2022-11-08T00:06:04.379Z,99488.00
2022-11-08T00:08:49.966Z,99489.00
2022-11-08T00:11:35.549Z,99485.00
2022-11-08T00:14:05.022Z,99479.00
2022-11-08T00:16:33.038Z,99480.00
2022-11-08T00:19:01.263Z,99473.00
2022-11-08T00:21:29.269Z,99479.00
2022-11-08T00:23:57.324Z,99483.00
2022-11-08T00:26:25.560Z,99474.00
2022-11-08T00:28:53.561Z,99478.00
2022-11-08T00:31:22.966Z,99475.00
2022-11-08T00:33:51.050Z,99485.00
2022-11-08T00:36:19.066Z,99480.00
2022-11-08T00:38:47.125Z,99484.00
2022-11-08T00:41:15.833Z,99493.00
2022-11-08T00:43:43.853Z,99487.00
2022-11-08T00:46:11.865Z,99484.00
2022-11-08T00:48:41.271Z,99491.00
2022-11-08T00:51:12.821Z,99486.00
2022-11-08T00:53:41.808Z,99482.00
2022-11-08T00:56:13.506Z,99469.00
2022-11-08T00:58:43.727Z,99484.00
2022-11-08T01:01:13.438Z,99479.00
2022-11-08T01:03:43.098Z,99476.00
2022-11-08T01:06:13.660Z,99478.00
2022-11-08T01:08:42.441Z,99470.00
2022-11-08T01:11:14.965Z,99457.00
2022-11-08T01:13:44.011Z,99464.00
2022-11-08T01:16:15.680Z,99462.00
2022-11-08T01:18:46.646Z,99456.00
2022-11-08T01:21:15.474Z,99456.00
2022-11-08T01:23:45.282Z,99452.00
2022-11-08T01:26:16.218Z,99450.00
2022-11-08T01:28:44.703Z,99456.00
2022-11-08T01:31:15.044Z,99449.00
2022-11-08T01:33:48.550Z,99446.00
2022-11-08T01:36:22.663Z,99446.00
2022-11-08T01:38:51.551Z,99441.00
2022-11-08T01:41:22.046Z,99440.00
2022-11-08T01:43:53.079Z,99440.00
2022-11-08T01:46:45.370Z,99446.00
2022-11-08T01:49:41.020Z,99435.00
2022-11-08T01:52:31.950Z,99430.00
2022-11-08T01:55:17.535Z,99424.00
2022-11-08T01:57:52.167Z,99430.00
2022-11-08T02:00:20.993Z,99429.00
2022-11-08T02:02:58.028Z,99432.00
2022-11-08T02:05:30.341Z,99416.00
2022-11-08T02:08:04.881Z,99420.00
2022-11-08T02:10:36.930Z,99414.00
2022-11-08T02:13:14.219Z,99427.00
2022-11-08T02:15:43.636Z,99421.00
2022-11-08T02:18:12.958Z,99420.00
2022-11-08T02:20:55.991Z,99432.00
2022-11-08T02:23:29.898Z,99433.00
2022-11-08T02:25:59.565Z,99431.00
2022-11-08T02:28:27.630Z,99426.00
2022-11-08T02:30:55.664Z,99408.00
2022-11-08T02:33:24.477Z,99431.00
2022-11-08T02:35:57.510Z,99432.00
2022-11-08T02:38:27.308Z,99427.00
2022-11-08T02:40:57.691Z,99434.00
2022-11-08T02:43:27.425Z,99438.00
2022-11-08T02:45:55.474Z,99431.00
2022-11-08T02:48:23.518Z,99426.00
2022-11-08T02:50:51.823Z,99445.00
2022-11-08T02:53:20.310Z,99432.00
2022-11-08T02:55:48.415Z,99415.00
2022-11-08T02:58:16.884Z,99430.00
2022-11-08T03:00:46.502Z,99427.00
2022-11-08T03:03:14.589Z,99430.00
2022-11-08T03:05:43.311Z,99428.00
2022-11-08T03:08:11.388Z,99434.00
2022-11-08T03:10:39.419Z,99432.00
2022-11-08T03:13:08.324Z,99447.00
2022-11-08T03:15:36.392Z,99432.00
2022-11-08T03:18:06.052Z,99436.00
2022-11-08T03:20:34.314Z,99438.00
2022-11-08T03:23:05.544Z,99438.00
2022-11-08T03:25:33.666Z,99445.00
2022-11-08T03:28:03.813Z,99446.00
2022-11-08T03:30:32.042Z,99439.00
2022-11-08T03:33:00.092Z,99430.00
2022-11-08T03:35:29.747Z,99436.00
2022-11-08T03:37:59.085Z,99447.00
2022-11-08T03:40:27.957Z,99441.00
2022-11-08T03:42:58.140Z,99441.00
2022-11-08T03:45:26.615Z,99434.00
2022-11-08T03:47:54.759Z,99433.00
2022-11-08T03:50:22.816Z,99426.00
2022-11-08T03:52:55.247Z,99419.00
2022-11-08T03:55:28.393Z,99423.00
2022-11-08T03:57:57.180Z,99434.00
2022-11-08T04:00:29.961Z,99426.00
2022-11-08T04:03:03.824Z,99434.00
2022-11-08T04:05:32.977Z,99420.00
2022-11-08T04:08:05.032Z,99423.00
2022-11-08T04:10:33.700Z,99429.00
2022-11-08T04:13:20.458Z,99430.00
2022-11-08T04:15:54.092Z,99422.00
2022-11-08T04:18:39.633Z,99423.00
2022-11-08T04:21:21.825Z,99425.00
2022-11-08T04:23:53.480Z,99425.00
2022-11-08T04:26:23.292Z,99422.00
2022-11-08T04:28:51.326Z,99425.00
2022-11-08T04:31:21.376Z,99429.00
2022-11-08T04:33:49.488Z,99413.00
2022-11-08T04:36:18.564Z,99413.00
2022-11-08T04:38:49.458Z,99417.00
2022-11-08T04:41:20.878Z,99414.00
2022-11-08T04:43:49.621Z,99413.00
2022-11-08T04:46:19.915Z,99413.00
2022-11-08T04:48:50.704Z,99405.00
2022-11-08T04:51:21.658Z,99419.00
2022-11-08T04:53:50.156Z,99419.00
2022-11-08T04:56:22.743Z,99416.00
2022-11-08T04:58:54.622Z,99420.00
2022-11-08T05:01:25.377Z,99418.00
2022-11-08T05:03:55.225Z,99384.00
2022-11-08T05:06:25.725Z,99418.00
2022-11-08T05:08:55.577Z,99420.00
2022-11-08T05:11:27.836Z,99420.00
2022-11-08T05:13:56.497Z,99420.00
2022-11-08T05:16:27.682Z,99415.00
2022-11-08T05:18:55.922Z,99433.00
2022-11-08T05:21:42.527Z,99410.00
2022-11-08T05:24:13.735Z,99418.00
2022-11-08T05:26:46.030Z,99417.00
2022-11-08T05:29:16.111Z,99415.00
2022-11-08T05:31:44.500Z,99412.00
2022-11-08T05:34:12.589Z,99420.00
2022-11-08T05:36:40.604Z,99420.00
2022-11-08T05:39:08.907Z,99423.00
2022-11-08T05:41:37.007Z,99418.00
2022-11-08T05:44:06.664Z,99417.00
2022-11-08T05:46:35.220Z,99404.00
2022-11-08T05:49:03.614Z,99410.00
2022-11-08T05:51:33.003Z,99414.00
2022-11-08T05:54:01.097Z,99413.00
2022-11-08T05:56:29.222Z,99407.00
2022-11-08T05:58:57.282Z,99408.00
2022-11-08T06:01:26.837Z,99373.00
2022-11-08T06:03:54.937Z,99414.00
2022-11-08T06:06:23.874Z,99410.00
2022-11-08T06:08:52.969Z,99409.00
2022-11-08T06:11:26.171Z,99408.00
2022-11-08T06:13:55.696Z,99409.00
2022-11-08T06:16:27.237Z,99416.00
2022-11-08T06:18:55.332Z,99417.00
2022-11-08T06:21:23.854Z,99407.00
2022-11-08T06:23:54.675Z,99412.00
2022-11-08T06:26:23.276Z,99406.00
2022-11-08T06:28:51.954Z,99404.00
2022-11-08T06:31:19.986Z,99402.00
2022-11-08T06:33:50.283Z,99415.00
2022-11-08T06:36:18.426Z,99403.00
2022-11-08T06:38:46.487Z,99409.00
2022-11-08T06:41:20.353Z,99414.00
2022-11-08T06:43:49.130Z,99413.00
2022-11-08T06:46:17.788Z,99400.00
2022-11-08T06:48:46.035Z,99416.00
2022-11-08T06:51:15.705Z,99427.00
2022-11-08T06:53:44.111Z,99414.00
2022-11-08T06:56:12.899Z,99431.00
2022-11-08T06:58:40.916Z,99415.00
2022-11-08T07:01:11.813Z,99414.00
2022-11-08T07:03:40.255Z,99422.00
2022-11-08T07:06:09.487Z,99414.00
2022-11-08T07:08:39.063Z,99415.00
2022-11-08T07:11:07.633Z,99420.00
2022-11-08T07:13:35.729Z,99411.00
2022-11-08T07:16:04.063Z,99370.00
2022-11-08T07:18:32.245Z,99420.00
2022-11-08T07:21:01.593Z,99410.00
2022-11-08T07:23:30.258Z,99403.00
2022-11-08T07:26:02.600Z,99412.00
2022-11-08T07:28:30.980Z,99413.00
2022-11-08T07:31:02.113Z,99415.00
2022-11-08T07:33:30.713Z,99411.00
2022-11-08T07:35:58.769Z,99405.00
2022-11-08T07:38:27.159Z,99412.00
2022-11-08T07:40:59.212Z,99367.00
2022-11-08T07:43:28.574Z,99406.00
2022-11-08T07:46:03.152Z,99406.00
2022-11-08T07:48:32.204Z,99409.00
2022-11-08T07:51:00.407Z,99414.00
2022-11-08T07:53:28.725Z,99409.00
2022-11-08T07:55:58.162Z,99410.00
2022-11-08T07:58:27.621Z,99403.00
2022-11-08T08:01:01.351Z,99404.00
2022-11-08T08:03:29.594Z,99406.00
2022-11-08T08:06:00.959Z,99408.00
2022-11-08T08:08:31.347Z,99416.00
2022-11-08T08:11:01.247Z,99410.00
2022-11-08T08:13:30.860Z,99411.00
2022-11-08T08:16:01.481Z,99406.00
2022-11-08T08:18:30.397Z,99408.00
2022-11-08T08:20:58.804Z,99400.00
2022-11-08T08:23:27.272Z,99402.00
2022-11-08T08:25:55.453Z,99408.00
2022-11-08T08:28:23.511Z,99398.00
2022-11-08T08:30:52.890Z,99397.00
2022-11-08T08:33:29.668Z,99391.00
2022-11-08T08:36:00.820Z,99402.00
2022-11-08T08:38:29.031Z,99389.00
2022-11-08T08:40:57.237Z,99381.00
2022-11-08T08:43:27.405Z,99389.00
2022-11-08T08:46:00.394Z,99385.00
2022-11-08T08:48:28.751Z,99376.00
2022-11-08T08:50:57.201Z,99371.00
2022-11-08T08:53:25.899Z,99381.00
2022-11-08T08:55:53.976Z,99376.00
2022-11-08T08:58:22.898Z,99377.00
2022-11-08T09:03:40.630Z,99379.00
2022-11-08T09:06:09.088Z,99375.00
2022-11-08T09:08:37.178Z,99361.00
2022-11-08T09:11:05.536Z,99367.00
2022-11-08T09:13:33.813Z,99370.00
2022-11-08T09:16:03.694Z,99367.00
2022-11-08T09:18:33.152Z,99367.00
2022-11-08T09:21:04.311Z,99331.00
2022-11-08T09:23:33.058Z,99364.00
2022-11-08T09:26:13.406Z,99362.00
2022-11-08T09:28:41.557Z,99356.00
2022-11-08T09:31:12.425Z,99364.00
2022-11-08T09:33:42.041Z,99373.00
2022-11-08T09:36:15.009Z,99361.00
2022-11-08T09:38:43.098Z,99354.00
2022-11-08T09:41:33.198Z,99364.00
2022-11-08T09:44:19.504Z,99360.00
2022-11-08T09:46:54.482Z,99360.00
2022-11-08T09:49:29.203Z,99360.00
2022-11-08T09:52:00.013Z,99361.00
2022-11-08T09:54:34.315Z,99343.00
2022-11-08T09:57:05.270Z,99353.00
2022-11-08T09:59:40.767Z,99351.00
2022-11-08T10:02:19.440Z,99346.00
2022-11-08T10:04:55.851Z,99334.00
2022-11-08T10:07:36.009Z,99347.00
2022-11-08T10:10:41.688Z,99334.00
2022-11-08T10:13:23.959Z,99325.00
2022-11-08T10:16:06.430Z,99329.00
2022-11-08T10:19:00.875Z,99335.00
2022-11-08T10:21:54.551Z,99326.00
2022-11-08T10:24:37.739Z,99317.00
2022-11-08T10:27:27.139Z,99327.00
2022-11-08T10:30:02.634Z,99317.00
2022-11-08T10:32:34.351Z,99320.00
2022-11-08T10:35:18.512Z,99322.00
2022-11-08T10:37:51.902Z,99324.00
2022-11-08T10:40:39.551Z,99324.00
2022-11-08T10:43:17.629Z,99317.00
2022-11-08T10:45:45.820Z,99308.00
2022-11-08T10:48:14.199Z,99312.00
2022-11-08T10:50:46.848Z,99294.00
2022-11-08T10:53:25.212Z,99305.00
2022-11-08T10:56:01.739Z,99300.00
2022-11-08T10:58:33.892Z,99299.00
2022-11-08T11:01:05.406Z,99279.00
2022-11-08T11:03:34.038Z,99294.00
2022-11-08T11:06:04.979Z,99293.00
2022-11-08T11:08:34.341Z,99288.00
2022-11-08T11:11:28.954Z,99286.00
2022-11-08T11:14:16.172Z,99282.00
2022-11-08T11:17:01.475Z,99266.00
2022-11-08T11:19:30.990Z,99280.00
2022-11-08T11:22:06.037Z,99273.00
2022-11-08T11:24:37.061Z,99276.00
2022-11-08T11:27:18.045Z,99272.00
2022-11-08T11:29:46.095Z,99264.00
2022-11-08T11:32:26.544Z,99273.00
2022-11-08T11:34:59.032Z,99260.00
2022-11-08T11:37:40.146Z,99266.00
2022-11-08T11:40:18.982Z,99266.00
2022-11-08T11:43:02.631Z,99269.00
2022-11-08T11:45:39.380Z,99257.00
2022-11-08T11:48:17.855Z,99248.00
2022-11-08T11:50:49.372Z,99243.00
2022-11-08T11:53:22.812Z,99261.00
2022-11-08T11:56:26.301Z,99247.00
2022-11-08T11:59:22.059Z,99237.00
2022-11-08T12:02:16.228Z,99237.00
2022-11-08T12:05:20.878Z,99234.00
2022-11-08T12:08:05.988Z,99237.00
2022-11-08T12:10:54.709Z,99221.00
2022-11-08T12:13:37.099Z,99231.00
2022-11-08T12:16:17.836Z,99228.00
2022-11-08T12:19:07.417Z,99202.00
2022-11-08T12:21:47.051Z,99227.00
2022-11-08T12:24:37.614Z,99226.00
2022-11-08T12:27:24.133Z,99222.00
2022-11-08T12:30:03.421Z,99209.00
2022-11-08T12:33:12.407Z,99220.00
2022-11-08T12:36:00.162Z,99227.00
2022-11-08T12:38:36.583Z,99215.00
2022-11-08T12:41:20.046Z,99172.00
2022-11-08T12:44:40.960Z,99211.00
2022-11-08T12:47:27.010Z,99203.00
2022-11-08T12:50:11.496Z,99199.00
2022-11-08T12:52:57.919Z,99199.00
2022-11-08T12:55:35.531Z,99198.00
2022-11-08T12:58:31.621Z,99194.00
2022-11-08T13:01:08.622Z,99189.00
2022-11-08T13:04:21.986Z,99189.00
2022-11-08T13:07:00.657Z,99189.00
2022-11-08T13:09:41.279Z,99176.00
2022-11-08T13:12:29.630Z,99190.00
2022-11-08T13:15:00.680Z,99175.00
2022-11-08T13:17:30.516Z,99170.00
2022-11-08T13:20:05.935Z,99171.00
2022-11-08T13:23:01.327Z,99166.00
2022-11-08T13:25:43.837Z,99168.00
2022-11-08T13:28:40.103Z,99186.00
2022-11-08T13:31:34.728Z,99164.00
2022-11-08T13:34:26.011Z,99169.00
2022-11-08T13:37:32.098Z,99165.00
2022-11-08T13:40:33.505Z,99154.00
2022-11-08T13:43:27.197Z,99173.00
2022-11-08T13:45:56.090Z,99164.00
2022-11-08T13:48:42.909Z,99160.00
2022-11-08T13:51:29.157Z,99165.00
2022-11-08T13:54:01.141Z,99157.00
2022-11-08T13:56:50.830Z,99156.00
2022-11-08T13:59:58.406Z,99157.00
2022-11-08T14:02:45.715Z,99151.00
2022-11-08T14:05:32.496Z,99125.00
2022-11-08T14:08:25.493Z,99160.00
2022-11-08T14:11:28.336Z,99168.00
2022-11-08T14:14:48.547Z,99166.00
2022-11-08T14:17:44.712Z,99175.00
2022-11-08T14:20:34.851Z,99177.00
2022-11-08T14:23:21.902Z,99166.00
2022-11-08T14:25:55.463Z,99162.00
2022-11-08T14:28:27.060Z,99152.00
2022-11-08T14:30:57.186Z,99156.00
2022-11-08T14:33:27.988Z,99154.00
2022-11-08T14:36:00.180Z,99150.00
2022-11-08T14:38:30.992Z,99151.00
2022-11-08T14:41:01.897Z,99151.00
2022-11-08T14:43:31.317Z,99160.00
2022-11-08T14:46:12.268Z,99153.00
2022-11-08T14:48:51.438Z,99147.00
2022-11-08T14:51:19.871Z,99143.00
2022-11-08T14:53:50.591Z,99147.00
2022-11-08T14:56:21.241Z,99143.00
2022-11-08T14:58:52.067Z,99145.00
2022-11-08T15:01:25.467Z,99143.00
2022-11-08T15:03:57.016Z,99146.00
2022-11-08T15:06:34.961Z,99143.00
2022-11-08T15:09:06.958Z,99134.00
2022-11-08T15:11:38.707Z,99143.00
2022-11-08T15:14:10.603Z,99139.00
2022-11-08T15:16:43.143Z,99135.00
2022-11-08T15:19:33.128Z,99132.00
2022-11-08T15:22:05.023Z,99142.00
2022-11-08T15:24:39.523Z,99150.00
2022-11-08T15:27:16.518Z,99149.00
2022-11-08T15:29:53.773Z,99156.00
2022-11-08T15:32:24.171Z,99150.00
2022-11-08T15:34:56.860Z,99149.00
2022-11-08T15:37:36.164Z,99146.00
2022-11-08T15:40:16.733Z,99145.00
2022-11-08T15:42:47.031Z,99150.00
2022-11-08T15:45:26.249Z,99142.00
2022-11-08T15:48:12.186Z,99145.00
2022-11-08T15:50:40.326Z,99153.00
2022-11-08T15:53:08.390Z,99152.00
2022-11-08T15:55:40.226Z,99147.00
2022-11-08T15:58:16.966Z,99135.00
2022-11-08T16:00:49.067Z,99138.00
2022-11-08T16:03:18.682Z,99136.00
2022-11-08T16:05:46.765Z,99134.00
2022-11-08T16:08:20.093Z,99136.00
2022-11-08T16:10:53.182Z,99130.00
2022-11-08T16:13:28.011Z,99135.00
2022-11-08T16:15:56.573Z,99139.00
2022-11-08T16:18:26.450Z,99131.00
2022-11-08T16:20:54.627Z,99130.00
2022-11-08T16:23:23.003Z,99128.00
2022-11-08T16:25:55.190Z,99132.00
2022-11-08T16:28:29.590Z,99129.00
2022-11-08T16:30:58.357Z,99123.00
2022-11-08T16:33:30.050Z,99121.00
2022-11-08T16:36:01.057Z,99124.00
2022-11-08T16:38:33.599Z,99120.00
2022-11-08T16:41:02.061Z,99119.00
2022-11-08T16:43:30.580Z,99118.00
2022-11-08T16:46:05.632Z,99098.00
2022-11-08T16:48:38.195Z,99125.00
2022-11-08T16:51:13.222Z,99123.00
2022-11-08T16:53:41.407Z,99123.00
2022-11-08T16:56:09.704Z,99125.00
2022-11-08T16:58:37.833Z,99133.00
2022-11-08T17:01:10.445Z,99114.00
2022-11-08T17:03:40.173Z,99132.00
2022-11-08T17:06:10.734Z,99123.00
2022-11-08T17:08:38.796Z,99133.00
2022-11-08T17:11:07.200Z,99130.00
2022-11-08T17:13:40.238Z,99128.00
2022-11-08T17:16:12.671Z,99133.00
2022-11-08T17:18:42.643Z,99120.00
2022-11-08T17:21:44.191Z,99122.00
2022-11-08T17:24:02.975Z,99120.00
2022-11-08T17:26:31.031Z,99122.00
2022-11-08T17:28:59.069Z,99134.00
2022-11-08T17:31:27.182Z,99123.00
2022-11-08T17:33:56.773Z,99135.00
2022-11-08T17:36:25.162Z,99137.00
2022-11-08T17:38:53.264Z,99134.00
2022-11-08T17:41:21.322Z,99133.00
2022-11-08T17:43:49.916Z,99130.00
2022-11-08T17:46:18.068Z,99131.00
2022-11-08T17:48:46.092Z,99138.00
2022-11-08T17:51:15.707Z,99142.00
2022-11-08T17:53:44.593Z,99133.00
2022-11-08T17:56:13.174Z,99127.00
2022-11-08T17:58:42.479Z,99127.00
2022-11-08T18:01:10.727Z,99128.00
2022-11-08T18:03:38.895Z,99134.00
2022-11-08T18:06:11.334Z,99125.00
2022-11-08T18:08:42.420Z,99124.00
2022-11-08T18:11:10.854Z,99132.00
2022-11-08T18:13:39.222Z,99123.00
2022-11-08T18:16:09.431Z,99119.00
2022-11-08T18:18:37.973Z,99125.00
2022-11-08T18:21:06.713Z,99122.00
2022-11-08T18:23:34.784Z,99132.00
2022-11-08T18:26:05.060Z,99115.00
2022-11-08T18:28:33.260Z,99127.00
2022-11-08T18:31:07.917Z,99136.00
2022-11-08T18:33:37.885Z,99132.00
2022-11-08T18:36:07.794Z,99117.00
2022-11-08T18:38:40.614Z,99133.00
2022-11-08T18:41:10.307Z,99130.00
2022-11-08T18:43:38.930Z,99121.00
2022-11-08T18:46:09.724Z,99123.00
2022-11-08T18:48:38.594Z,99126.00
2022-11-08T18:51:09.705Z,99115.00
2022-11-08T18:53:38.552Z,99120.00
2022-11-08T18:56:09.765Z,99120.00
2022-11-08T18:58:37.873Z,99121.00
2022-11-08T19:01:07.123Z,99123.00
2022-11-08T19:03:35.517Z,99122.00
2022-11-08T19:06:03.951Z,99115.00
2022-11-08T19:08:33.369Z,99111.00
2022-11-08T19:11:06.110Z,99125.00
2022-11-08T19:13:38.043Z,99120.00
2022-11-08T19:16:08.531Z,99119.00
2022-11-08T19:18:37.612Z,99116.00
2022-11-08T19:21:08.566Z,99110.00
2022-11-08T19:23:38.335Z,99136.00
2022-11-08T19:26:09.301Z,99129.00
2022-11-08T19:28:42.201Z,99130.00
2022-11-08T19:31:10.422Z,99129.00
2022-11-08T19:33:38.625Z,99128.00
2022-11-08T19:36:10.036Z,99131.00
2022-11-08T19:38:40.171Z,99136.00
2022-11-08T19:41:11.057Z,99139.00
2022-11-08T19:43:42.781Z,99145.00
2022-11-08T19:46:14.713Z,99143.00
2022-11-08T19:48:45.744Z,99137.00
2022-11-08T19:51:16.426Z,99153.00
2022-11-08T19:53:45.231Z,99149.00
2022-11-08T19:56:17.103Z,99147.00
2022-11-08T19:58:47.056Z,99161.00
2022-11-08T20:01:19.085Z,99153.00
2022-11-08T20:03:47.978Z,99151.00
2022-11-08T20:06:19.173Z,99173.00
2022-11-08T20:08:49.490Z,99145.00
2022-11-08T20:11:20.988Z,99154.00
2022-11-08T20:13:51.127Z,99157.00
2022-11-08T20:16:22.131Z,99160.00
2022-11-08T20:18:50.140Z,99154.00
2022-11-08T20:21:18.884Z,99142.00
2022-11-08T20:23:48.490Z,99152.00
2022-11-08T20:26:19.819Z,99146.00
2022-11-08T20:28:56.233Z,99146.00
2022-11-08T20:31:26.164Z,99142.00
2022-11-08T20:33:55.218Z,99133.00
2022-11-08T20:36:26.058Z,99138.00
2022-11-08T20:38:59.909Z,99140.00
2022-11-08T20:41:30.846Z,99133.00
2022-11-08T20:44:00.193Z,99132.00
2022-11-08T20:46:28.215Z,99140.00
2022-11-08T20:49:00.385Z,99135.00
2022-11-08T20:51:29.888Z,99138.00
2022-11-08T20:53:59.355Z,99148.00
2022-11-08T20:56:28.898Z,99137.00
2022-11-08T20:58:57.676Z,99133.00
2022-11-08T21:01:30.578Z,99128.00
2022-11-08T21:03:59.301Z,99123.00
2022-11-08T21:06:32.905Z,99131.00
2022-11-08T21:09:19.604Z,99128.00
2022-11-08T21:11:51.604Z,99134.00
2022-11-08T21:14:19.765Z,99134.00
2022-11-08T21:17:15.069Z,99128.00
2022-11-08T21:19:37.022Z,99131.00
2022-11-08T21:22:16.984Z,99131.00
2022-11-08T21:24:47.811Z,99128.00
2022-11-08T21:27:16.635Z,99122.00
2022-11-08T21:29:44.781Z,99122.00
2022-11-08T21:32:14.329Z,99120.00
2022-11-08T21:34:45.635Z,99121.00
2022-11-08T21:37:14.707Z,99122.00
2022-11-08T21:39:42.835Z,99114.00
2022-11-08T21:42:10.816Z,99116.00
2022-11-08T21:44:38.821Z,99075.00
2022-11-08T21:47:06.858Z,99107.00
2022-11-08T21:49:36.207Z,99114.00
2022-11-08T21:52:04.489Z,99109.00
2022-11-08T21:54:32.477Z,99106.00
2022-11-08T21:57:00.583Z,99112.00
2022-11-08T21:59:28.599Z,99114.00
2022-11-08T22:01:56.642Z,99109.00
2022-11-08T22:04:24.666Z,99107.00
2022-11-08T22:06:54.259Z,99099.00
2022-11-08T22:09:22.290Z,99108.00
2022-11-08T22:11:50.320Z,99104.00
2022-11-08T22:14:18.348Z,99108.00
2022-11-08T22:16:46.583Z,99098.00
2022-11-08T22:19:14.838Z,99101.00
2022-11-08T22:21:45.991Z,99108.00
2022-11-08T22:24:20.141Z,99103.00
2022-11-08T22:26:50.009Z,99103.00
2022-11-08T22:29:19.456Z,99115.00
2022-11-08T22:31:47.901Z,99104.00
2022-11-08T22:34:16.567Z,99108.00
2022-11-08T22:36:46.037Z,99107.00
2022-11-08T22:39:17.577Z,99112.00
2022-11-08T22:41:47.731Z,99108.00
2022-11-08T22:44:16.797Z,99098.00
2022-11-08T22:46:46.833Z,99081.00
2022-11-08T22:49:15.832Z,99097.00
2022-11-08T22:51:45.085Z,99095.00
2022-11-08T22:54:14.679Z,99110.00
2022-11-08T22:56:43.047Z,99093.00
2022-11-08T22:59:11.086Z,99097.00
2022-11-08T23:01:39.126Z,99101.00
2022-11-08T23:04:10.990Z,99100.00
2022-11-08T23:06:39.374Z,99091.00
2022-11-08T23:09:08.210Z,99100.00
2022-11-08T23:11:55.533Z,99101.00
2022-11-08T23:14:41.023Z,99106.00
2022-11-08T23:17:09.334Z,99098.00
2022-11-08T23:19:54.886Z,99100.00
2022-11-08T23:22:41.113Z,99101.00
2022-11-08T23:25:09.513Z,99093.00
2022-11-08T23:27:56.243Z,99098.00
2022-11-08T23:30:42.234Z,99103.00
2022-11-08T23:33:10.354Z,99088.00
2022-11-08T23:35:58.466Z,99088.00
2022-11-08T23:38:26.492Z,99089.00
2022-11-08T23:41:12.013Z,99097.00
2022-11-08T23:43:58.918Z,99096.00
2022-11-08T23:46:26.966Z,99101.00
2022-11-08T23:48:55.007Z,99098.00
2022-11-08T23:51:23.112Z,99101.00
2022-11-08T23:53:51.128Z,99105.00
2022-11-08T23:56:23.363Z,99114.00
2022-11-08T23:58:53.222Z,99096.00
